sensor_id;sensor_type;location;lat;lon;timestamp;temperature;humidity
22696;DHT22;11515;54.326;10.184;2022-10-30T00:02:06;13.20;99.90
22696;DHT22;11515;54.326;10.184;2022-10-30T00:04:32;13.20;99.90
22696;DHT22;11515;54.326;10.184;2022-10-30T00:06:57;13.10;99.90
22696;DHT22;11515;54.326;10.184;2022-10-30T00:09:23;13.00;99.90
22696;DHT22;11515;54.326;10.184;2022-10-30T00:11:48;13.00;99.90
22696;DHT22;11515;54.326;10.184;2022-10-30T00:14:14;12.80;99.90
22696;DHT22;11515;54.326;10.184;2022-10-30T00:16:39;12.70;99.90
22696;DHT22;11515;54.326;10.184;2022-10-30T00:19:05;12.70;99.90
22696;DHT22;11515;54.326;10.184;2022-10-30T00:21:30;12.70;99.90
22696;DHT22;11515;54.326;10.184;2022-10-30T00:23:56;12.70;99.90
22696;DHT22;11515;54.326;10.184;2022-10-30T00:26:22;12.70;99.90
22696;DHT22;11515;54.326;10.184;2022-10-30T00:28:49;12.70;99.90
22696;DHT22;11515;54.326;10.184;2022-10-30T00:31:15;12.80;99.90
22696;DHT22;11515;54.326;10.184;2022-10-30T00:33:41;12.70;99.90
22696;DHT22;11515;54.326;10.184;2022-10-30T00:36:06;12.80;99.90
22696;DHT22;11515;54.326;10.184;2022-10-30T00:38:32;12.80;99.90
22696;DHT22;11515;54.326;10.184;2022-10-30T00:40:58;12.80;99.90
22696;DHT22;11515;54.326;10.184;2022-10-30T00:43:27;12.80;99.90
22696;DHT22;11515;54.326;10.184;2022-10-30T00:45:53;12.80;99.90
22696;DHT22;11515;54.326;10.184;2022-10-30T00:48:21;12.70;99.90
22696;DHT22;11515;54.326;10.184;2022-10-30T00:50:48;12.60;99.90
22696;DHT22;11515;54.326;10.184;2022-10-30T00:53:16;12.50;99.90
22696;DHT22;11515;54.326;10.184;2022-10-30T00:55:56;12.40;99.90
22696;DHT22;11515;54.326;10.184;2022-10-30T00:58:36;12.30;99.90
22696;DHT22;11515;54.326;10.184;2022-10-30T01:01:08;12.30;99.90
22696;DHT22;11515;54.326;10.184;2022-10-30T01:03:36;12.30;99.90
22696;DHT22;11515;54.326;10.184;2022-10-30T01:06:06;12.30;99.90
22696;DHT22;11515;54.326;10.184;2022-10-30T01:08:32;12.30;99.90
22696;DHT22;11515;54.326;10.184;2022-10-30T01:10:59;12.20;99.90
22696;DHT22;11515;54.326;10.184;2022-10-30T01:13:26;12.20;99.90
22696;DHT22;11515;54.326;10.184;2022-10-30T01:22:03;12.10;99.90
22696;DHT22;11515;54.326;10.184;2022-10-30T01:30:50;12.10;99.90
22696;DHT22;11515;54.326;10.184;2022-10-30T01:33:38;12.20;99.90
22696;DHT22;11515;54.326;10.184;2022-10-30T01:38:50;12.30;99.90
22696;DHT22;11515;54.326;10.184;2022-10-30T01:41:17;12.20;99.90
22696;DHT22;11515;54.326;10.184;2022-10-30T01:43:45;12.20;99.90
22696;DHT22;11515;54.326;10.184;2022-10-30T01:49:31;12.20;99.90
22696;DHT22;11515;54.326;10.184;2022-10-30T01:59:51;12.20;99.90
22696;DHT22;11515;54.326;10.184;2022-10-30T02:02:18;12.10;99.90
22696;DHT22;11515;54.326;10.184;2022-10-30T02:04:44;12.10;99.90
22696;DHT22;11515;54.326;10.184;2022-10-30T02:07:10;12.10;99.90
22696;DHT22;11515;54.326;10.184;2022-10-30T02:09:36;12.10;99.90
22696;DHT22;11515;54.326;10.184;2022-10-30T02:12:02;12.20;99.90
22696;DHT22;11515;54.326;10.184;2022-10-30T02:14:35;12.20;99.90
22696;DHT22;11515;54.326;10.184;2022-10-30T02:17:03;12.10;99.90
22696;DHT22;11515;54.326;10.184;2022-10-30T02:19:29;12.30;99.90
22696;DHT22;11515;54.326;10.184;2022-10-30T02:21:55;12.30;99.90
22696;DHT22;11515;54.326;10.184;2022-10-30T02:24:23;12.20;99.90
22696;DHT22;11515;54.326;10.184;2022-10-30T02:26:49;12.20;99.90
22696;DHT22;11515;54.326;10.184;2022-10-30T02:29:14;12.30;99.90
22696;DHT22;11515;54.326;10.184;2022-10-30T02:31:41;12.30;99.90
22696;DHT22;11515;54.326;10.184;2022-10-30T02:34:07;12.20;99.90
22696;DHT22;11515;54.326;10.184;2022-10-30T02:36:35;12.20;99.90
22696;DHT22;11515;54.326;10.184;2022-10-30T02:39:02;12.20;99.90
22696;DHT22;11515;54.326;10.184;2022-10-30T02:41:27;12.20;99.90
22696;DHT22;11515;54.326;10.184;2022-10-30T02:43:53;12.10;99.90
22696;DHT22;11515;54.326;10.184;2022-10-30T02:46:19;12.10;99.90
22696;DHT22;11515;54.326;10.184;2022-10-30T02:48:44;12.00;99.90
22696;DHT22;11515;54.326;10.184;2022-10-30T02:51:10;12.10;99.90
22696;DHT22;11515;54.326;10.184;2022-10-30T02:53:37;12.00;99.90
22696;DHT22;11515;54.326;10.184;2022-10-30T02:56:10;12.00;99.90
22696;DHT22;11515;54.326;10.184;2022-10-30T02:58:37;12.00;99.90
22696;DHT22;11515;54.326;10.184;2022-10-30T03:01:13;11.90;99.90
22696;DHT22;11515;54.326;10.184;2022-10-30T03:03:40;11.90;99.90
22696;DHT22;11515;54.326;10.184;2022-10-30T03:06:08;11.90;99.90
22696;DHT22;11515;54.326;10.184;2022-10-30T03:08:34;11.90;99.90
22696;DHT22;11515;54.326;10.184;2022-10-30T03:11:13;11.90;99.90
22696;DHT22;11515;54.326;10.184;2022-10-30T03:13:40;11.80;99.90
22696;DHT22;11515;54.326;10.184;2022-10-30T03:16:17;11.90;99.90
22696;DHT22;11515;54.326;10.184;2022-10-30T03:18:43;11.90;99.90
22696;DHT22;11515;54.326;10.184;2022-10-30T03:21:13;12.00;99.90
22696;DHT22;11515;54.326;10.184;2022-10-30T03:23:39;12.00;99.90
22696;DHT22;11515;54.326;10.184;2022-10-30T03:26:05;11.90;99.90
22696;DHT22;11515;54.326;10.184;2022-10-30T03:28:31;11.90;99.90
22696;DHT22;11515;54.326;10.184;2022-10-30T03:30:58;11.80;99.90
22696;DHT22;11515;54.326;10.184;2022-10-30T03:33:24;11.80;99.90
22696;DHT22;11515;54.326;10.184;2022-10-30T03:35:50;11.80;99.90
22696;DHT22;11515;54.326;10.184;2022-10-30T03:38:16;11.80;99.90
22696;DHT22;11515;54.326;10.184;2022-10-30T03:40:41;11.80;99.90
22696;DHT22;11515;54.326;10.184;2022-10-30T03:43:07;11.80;99.90
22696;DHT22;11515;54.326;10.184;2022-10-30T03:45:33;11.80;99.90
22696;DHT22;11515;54.326;10.184;2022-10-30T03:48:00;11.70;99.90
22696;DHT22;11515;54.326;10.184;2022-10-30T03:50:26;11.80;99.90
22696;DHT22;11515;54.326;10.184;2022-10-30T03:52:55;11.80;99.90
22696;DHT22;11515;54.326;10.184;2022-10-30T03:55:22;11.90;99.90
22696;DHT22;11515;54.326;10.184;2022-10-30T03:57:48;11.90;99.90
22696;DHT22;11515;54.326;10.184;2022-10-30T04:00:15;12.00;99.90
22696;DHT22;11515;54.326;10.184;2022-10-30T04:02:45;12.00;99.90
22696;DHT22;11515;54.326;10.184;2022-10-30T04:05:12;11.90;99.90
22696;DHT22;11515;54.326;10.184;2022-10-30T04:07:37;11.90;99.90
22696;DHT22;11515;54.326;10.184;2022-10-30T04:10:03;12.00;99.90
22696;DHT22;11515;54.326;10.184;2022-10-30T04:12:29;12.00;99.90
22696;DHT22;11515;54.326;10.184;2022-10-30T04:14:54;12.00;99.90
22696;DHT22;11515;54.326;10.184;2022-10-30T04:17:21;12.00;99.90
22696;DHT22;11515;54.326;10.184;2022-10-30T04:19:46;11.90;99.90
22696;DHT22;11515;54.326;10.184;2022-10-30T04:22:12;11.90;99.90
22696;DHT22;11515;54.326;10.184;2022-10-30T04:24:38;12.00;99.90
22696;DHT22;11515;54.326;10.184;2022-10-30T04:27:04;12.00;99.90
22696;DHT22;11515;54.326;10.184;2022-10-30T04:29:34;12.00;99.90
22696;DHT22;11515;54.326;10.184;2022-10-30T04:32:01;12.10;99.90
22696;DHT22;11515;54.326;10.184;2022-10-30T04:34:27;12.00;99.90
22696;DHT22;11515;54.326;10.184;2022-10-30T04:36:53;12.00;99.90
22696;DHT22;11515;54.326;10.184;2022-10-30T04:39:18;12.00;99.90
22696;DHT22;11515;54.326;10.184;2022-10-30T04:41:44;12.10;99.90
22696;DHT22;11515;54.326;10.184;2022-10-30T04:44:10;12.20;99.90
22696;DHT22;11515;54.326;10.184;2022-10-30T04:46:35;12.10;99.90
22696;DHT22;11515;54.326;10.184;2022-10-30T04:49:01;12.10;99.90
22696;DHT22;11515;54.326;10.184;2022-10-30T04:51:26;12.00;99.90
22696;DHT22;11515;54.326;10.184;2022-10-30T04:53:52;12.10;99.90
22696;DHT22;11515;54.326;10.184;2022-10-30T04:56:18;12.00;99.90
22696;DHT22;11515;54.326;10.184;2022-10-30T04:58:44;12.10;99.90
22696;DHT22;11515;54.326;10.184;2022-10-30T05:01:09;12.00;99.90
22696;DHT22;11515;54.326;10.184;2022-10-30T05:03:35;12.00;99.90
22696;DHT22;11515;54.326;10.184;2022-10-30T05:06:03;12.00;99.90
22696;DHT22;11515;54.326;10.184;2022-10-30T05:08:33;11.90;99.90
22696;DHT22;11515;54.326;10.184;2022-10-30T05:10:59;11.90;99.90
22696;DHT22;11515;54.326;10.184;2022-10-30T05:13:28;11.80;99.90
22696;DHT22;11515;54.326;10.184;2022-10-30T05:15:53;11.80;99.90
22696;DHT22;11515;54.326;10.184;2022-10-30T05:18:19;11.80;99.90
22696;DHT22;11515;54.326;10.184;2022-10-30T05:20:46;11.80;99.90
22696;DHT22;11515;54.326;10.184;2022-10-30T05:23:11;11.80;99.90
22696;DHT22;11515;54.326;10.184;2022-10-30T05:25:37;11.80;99.90
22696;DHT22;11515;54.326;10.184;2022-10-30T05:28:04;11.70;99.90
22696;DHT22;11515;54.326;10.184;2022-10-30T05:30:32;11.70;99.90
22696;DHT22;11515;54.326;10.184;2022-10-30T05:33:03;11.70;99.90
22696;DHT22;11515;54.326;10.184;2022-10-30T05:35:30;11.70;99.90
22696;DHT22;11515;54.326;10.184;2022-10-30T05:38:00;11.70;99.90
22696;DHT22;11515;54.326;10.184;2022-10-30T05:40:30;11.80;99.90
22696;DHT22;11515;54.326;10.184;2022-10-30T05:42:55;11.70;99.90
22696;DHT22;11515;54.326;10.184;2022-10-30T05:45:21;11.70;99.90
22696;DHT22;11515;54.326;10.184;2022-10-30T05:48:05;11.70;99.90
22696;DHT22;11515;54.326;10.184;2022-10-30T05:50:32;11.70;99.90
22696;DHT22;11515;54.326;10.184;2022-10-30T05:52:59;11.70;99.90
22696;DHT22;11515;54.326;10.184;2022-10-30T05:55:25;11.70;99.90
22696;DHT22;11515;54.326;10.184;2022-10-30T05:58:02;11.70;99.90
22696;DHT22;11515;54.326;10.184;2022-10-30T06:00:29;11.70;99.90
22696;DHT22;11515;54.326;10.184;2022-10-30T06:03:03;11.70;99.90
22696;DHT22;11515;54.326;10.184;2022-10-30T06:05:30;11.50;99.90
22696;DHT22;11515;54.326;10.184;2022-10-30T06:07:56;11.50;99.90
22696;DHT22;11515;54.326;10.184;2022-10-30T06:10:25;11.50;99.90
22696;DHT22;11515;54.326;10.184;2022-10-30T06:12:58;11.50;99.90
22696;DHT22;11515;54.326;10.184;2022-10-30T06:15:25;11.40;99.90
22696;DHT22;11515;54.326;10.184;2022-10-30T06:23:03;12.10;99.90
22696;DHT22;11515;54.326;10.184;2022-10-30T06:25:31;11.50;99.90
22696;DHT22;11515;54.326;10.184;2022-10-30T06:35:21;10.90;99.90
22696;DHT22;11515;54.326;10.184;2022-10-30T06:37:47;11.40;99.90
22696;DHT22;11515;54.326;10.184;2022-10-30T06:40:14;11.40;99.90
22696;DHT22;11515;54.326;10.184;2022-10-30T06:42:44;11.40;99.90
22696;DHT22;11515;54.326;10.184;2022-10-30T06:45:10;11.40;99.90
22696;DHT22;11515;54.326;10.184;2022-10-30T06:47:36;11.50;99.90
22696;DHT22;11515;54.326;10.184;2022-10-30T06:50:04;11.50;99.90
22696;DHT22;11515;54.326;10.184;2022-10-30T06:59:48;11.40;99.90
22696;DHT22;11515;54.326;10.184;2022-10-30T07:02:13;11.70;99.90
22696;DHT22;11515;54.326;10.184;2022-10-30T07:04:39;11.70;99.90
22696;DHT22;11515;54.326;10.184;2022-10-30T07:07:05;11.70;99.90
22696;DHT22;11515;54.326;10.184;2022-10-30T07:09:30;11.70;99.90
22696;DHT22;11515;54.326;10.184;2022-10-30T07:11:56;11.80;99.90
22696;DHT22;11515;54.326;10.184;2022-10-30T07:14:21;11.80;99.90
22696;DHT22;11515;54.326;10.184;2022-10-30T07:16:47;11.80;99.90
22696;DHT22;11515;54.326;10.184;2022-10-30T07:19:12;11.80;99.90
22696;DHT22;11515;54.326;10.184;2022-10-30T07:21:38;11.80;99.90
22696;DHT22;11515;54.326;10.184;2022-10-30T07:24:04;11.90;99.90
22696;DHT22;11515;54.326;10.184;2022-10-30T07:26:29;11.90;99.90
22696;DHT22;11515;54.326;10.184;2022-10-30T07:28:55;11.90;99.90
22696;DHT22;11515;54.326;10.184;2022-10-30T07:31:21;11.90;99.90
22696;DHT22;11515;54.326;10.184;2022-10-30T07:33:46;12.00;99.90
22696;DHT22;11515;54.326;10.184;2022-10-30T07:36:12;12.00;99.90
22696;DHT22;11515;54.326;10.184;2022-10-30T07:38:39;12.00;99.90
22696;DHT22;11515;54.326;10.184;2022-10-30T07:41:05;12.00;99.90
22696;DHT22;11515;54.326;10.184;2022-10-30T07:43:30;12.00;99.90
22696;DHT22;11515;54.326;10.184;2022-10-30T07:45:56;12.10;99.90
22696;DHT22;11515;54.326;10.184;2022-10-30T07:48:22;12.10;99.90
22696;DHT22;11515;54.326;10.184;2022-10-30T07:50:47;12.20;99.90
22696;DHT22;11515;54.326;10.184;2022-10-30T07:53:13;12.20;99.90
22696;DHT22;11515;54.326;10.184;2022-10-30T07:55:41;12.30;99.90
22696;DHT22;11515;54.326;10.184;2022-10-30T07:58:07;12.40;99.90
22696;DHT22;11515;54.326;10.184;2022-10-30T08:00:32;12.40;99.90
22696;DHT22;11515;54.326;10.184;2022-10-30T08:02:58;12.50;99.90
22696;DHT22;11515;54.326;10.184;2022-10-30T08:05:24;12.50;99.90
22696;DHT22;11515;54.326;10.184;2022-10-30T08:07:49;12.60;99.90
22696;DHT22;11515;54.326;10.184;2022-10-30T08:10:15;12.70;99.90
22696;DHT22;11515;54.326;10.184;2022-10-30T08:12:41;12.70;99.90
22696;DHT22;11515;54.326;10.184;2022-10-30T08:15:09;12.80;99.90
22696;DHT22;11515;54.326;10.184;2022-10-30T08:17:45;13.00;99.90
22696;DHT22;11515;54.326;10.184;2022-10-30T08:20:12;13.00;99.90
22696;DHT22;11515;54.326;10.184;2022-10-30T08:22:52;13.10;99.90
22696;DHT22;11515;54.326;10.184;2022-10-30T08:25:20;13.20;99.90
22696;DHT22;11515;54.326;10.184;2022-10-30T08:27:51;13.30;99.90
22696;DHT22;11515;54.326;10.184;2022-10-30T08:30:17;13.40;99.90
22696;DHT22;11515;54.326;10.184;2022-10-30T08:32:43;13.40;99.90
22696;DHT22;11515;54.326;10.184;2022-10-30T08:35:09;13.50;99.90
22696;DHT22;11515;54.326;10.184;2022-10-30T08:37:34;13.60;99.90
22696;DHT22;11515;54.326;10.184;2022-10-30T08:40:00;13.70;99.90
22696;DHT22;11515;54.326;10.184;2022-10-30T08:42:25;13.80;99.90
22696;DHT22;11515;54.326;10.184;2022-10-30T08:44:51;13.80;99.90
22696;DHT22;11515;54.326;10.184;2022-10-30T08:47:16;13.90;99.90
22696;DHT22;11515;54.326;10.184;2022-10-30T08:49:42;14.00;99.90
22696;DHT22;11515;54.326;10.184;2022-10-30T08:52:08;14.00;99.90
22696;DHT22;11515;54.326;10.184;2022-10-30T08:54:33;14.10;99.90
22696;DHT22;11515;54.326;10.184;2022-10-30T08:56:59;14.10;99.90
22696;DHT22;11515;54.326;10.184;2022-10-30T08:59:25;14.20;99.90
22696;DHT22;11515;54.326;10.184;2022-10-30T09:01:51;14.20;99.90
22696;DHT22;11515;54.326;10.184;2022-10-30T09:04:16;14.30;99.90
22696;DHT22;11515;54.326;10.184;2022-10-30T09:06:42;14.40;99.90
22696;DHT22;11515;54.326;10.184;2022-10-30T09:09:07;14.40;99.90
22696;DHT22;11515;54.326;10.184;2022-10-30T09:11:33;14.40;99.90
22696;DHT22;11515;54.326;10.184;2022-10-30T09:13:58;14.50;99.90
22696;DHT22;11515;54.326;10.184;2022-10-30T09:16:24;14.50;99.90
22696;DHT22;11515;54.326;10.184;2022-10-30T09:18:49;14.50;99.90
22696;DHT22;11515;54.326;10.184;2022-10-30T09:21:15;14.60;99.90
22696;DHT22;11515;54.326;10.184;2022-10-30T09:23:44;14.60;99.90
22696;DHT22;11515;54.326;10.184;2022-10-30T09:26:10;14.70;99.90
22696;DHT22;11515;54.326;10.184;2022-10-30T09:28:36;14.80;99.90
22696;DHT22;11515;54.326;10.184;2022-10-30T09:31:01;14.90;99.90
22696;DHT22;11515;54.326;10.184;2022-10-30T09:33:27;15.00;99.90
22696;DHT22;11515;54.326;10.184;2022-10-30T09:35:53;15.20;99.90
22696;DHT22;11515;54.326;10.184;2022-10-30T09:38:18;15.60;99.90
22696;DHT22;11515;54.326;10.184;2022-10-30T09:47:02;17.70;99.90
22696;DHT22;11515;54.326;10.184;2022-10-30T09:49:39;18.40;99.90
22696;DHT22;11515;54.326;10.184;2022-10-30T09:52:25;18.60;99.90
22696;DHT22;11515;54.326;10.184;2022-10-30T09:55:14;19.20;99.90
22696;DHT22;11515;54.326;10.184;2022-10-30T09:57:46;19.40;99.90
22696;DHT22;11515;54.326;10.184;2022-10-30T10:00:17;19.30;99.90
22696;DHT22;11515;54.326;10.184;2022-10-30T10:03:13;19.70;99.90
22696;DHT22;11515;54.326;10.184;2022-10-30T10:05:45;19.50;99.90
22696;DHT22;11515;54.326;10.184;2022-10-30T10:08:16;19.50;99.90
22696;DHT22;11515;54.326;10.184;2022-10-30T10:10:51;19.00;99.90
22696;DHT22;11515;54.326;10.184;2022-10-30T10:18:42;18.80;99.90
22696;DHT22;11515;54.326;10.184;2022-10-30T10:21:17;19.00;99.90
22696;DHT22;11515;54.326;10.184;2022-10-30T10:24:02;19.40;99.90
22696;DHT22;11515;54.326;10.184;2022-10-30T10:26:58;19.80;99.90
22696;DHT22;11515;54.326;10.184;2022-10-30T10:29:41;20.00;99.90
22696;DHT22;11515;54.326;10.184;2022-10-30T10:40:52;19.80;99.90
22696;DHT22;11515;54.326;10.184;2022-10-30T10:49:18;19.80;99.90
22696;DHT22;11515;54.326;10.184;2022-10-30T10:51:55;20.00;99.90
22696;DHT22;11515;54.326;10.184;2022-10-30T10:54:30;20.70;99.90
22696;DHT22;11515;54.326;10.184;2022-10-30T10:56:59;21.00;99.90
22696;DHT22;11515;54.326;10.184;2022-10-30T10:59:39;21.10;99.90
22696;DHT22;11515;54.326;10.184;2022-10-30T11:02:23;21.20;99.90
22696;DHT22;11515;54.326;10.184;2022-10-30T11:04:54;21.10;99.90
22696;DHT22;11515;54.326;10.184;2022-10-30T11:07:32;21.40;99.90
22696;DHT22;11515;54.326;10.184;2022-10-30T11:10:01;21.80;99.90
22696;DHT22;11515;54.326;10.184;2022-10-30T11:12:28;21.60;99.90
22696;DHT22;11515;54.326;10.184;2022-10-30T11:14:57;21.50;99.90
22696;DHT22;11515;54.326;10.184;2022-10-30T11:17:52;22.20;99.90
22696;DHT22;11515;54.326;10.184;2022-10-30T11:20:28;21.90;99.90
22696;DHT22;11515;54.326;10.184;2022-10-30T11:22:55;22.60;99.90
22696;DHT22;11515;54.326;10.184;2022-10-30T11:25:24;23.10;99.90
22696;DHT22;11515;54.326;10.184;2022-10-30T11:27:55;23.20;99.90
22696;DHT22;11515;54.326;10.184;2022-10-30T11:30:23;23.30;99.90
22696;DHT22;11515;54.326;10.184;2022-10-30T11:32:50;23.70;99.90
22696;DHT22;11515;54.326;10.184;2022-10-30T11:35:20;22.80;99.90
22696;DHT22;11515;54.326;10.184;2022-10-30T11:37:49;22.60;99.90
22696;DHT22;11515;54.326;10.184;2022-10-30T11:40:22;22.80;99.90
22696;DHT22;11515;54.326;10.184;2022-10-30T11:42:58;22.70;99.90
22696;DHT22;11515;54.326;10.184;2022-10-30T11:45:26;22.70;99.90
22696;DHT22;11515;54.326;10.184;2022-10-30T11:47:53;23.00;99.90
22696;DHT22;11515;54.326;10.184;2022-10-30T11:50:22;22.80;99.90
22696;DHT22;11515;54.326;10.184;2022-10-30T11:52:53;22.70;99.90
22696;DHT22;11515;54.326;10.184;2022-10-30T11:55:27;23.00;99.90
22696;DHT22;11515;54.326;10.184;2022-10-30T11:57:57;22.90;99.90
22696;DHT22;11515;54.326;10.184;2022-10-30T12:00:28;23.30;99.90
22696;DHT22;11515;54.326;10.184;2022-10-30T12:02:57;23.90;99.90
22696;DHT22;11515;54.326;10.184;2022-10-30T12:10:31;24.30;99.90
22696;DHT22;11515;54.326;10.184;2022-10-30T12:13:03;24.20;99.90
22696;DHT22;11515;54.326;10.184;2022-10-30T12:15:34;24.70;99.90
22696;DHT22;11515;54.326;10.184;2022-10-30T12:18:03;24.80;99.90
22696;DHT22;11515;54.326;10.184;2022-10-30T12:20:31;24.80;99.90
22696;DHT22;11515;54.326;10.184;2022-10-30T12:22:57;24.80;99.90
22696;DHT22;11515;54.326;10.184;2022-10-30T12:25:32;24.90;99.90
22696;DHT22;11515;54.326;10.184;2022-10-30T12:28:07;25.60;99.90
22696;DHT22;11515;54.326;10.184;2022-10-30T12:30:45;24.90;99.90
22696;DHT22;11515;54.326;10.184;2022-10-30T12:33:24;25.10;99.90
22696;DHT22;11515;54.326;10.184;2022-10-30T12:35:57;25.40;99.90
22696;DHT22;11515;54.326;10.184;2022-10-30T12:38:42;24.80;99.90
22696;DHT22;11515;54.326;10.184;2022-10-30T12:41:16;24.40;99.90
22696;DHT22;11515;54.326;10.184;2022-10-30T12:43:47;25.50;99.90
22696;DHT22;11515;54.326;10.184;2022-10-30T12:46:32;26.50;99.90
22696;DHT22;11515;54.326;10.184;2022-10-30T12:49:08;27.00;99.90
22696;DHT22;11515;54.326;10.184;2022-10-30T12:54:44;25.60;99.90
22696;DHT22;11515;54.326;10.184;2022-10-30T12:57:53;25.30;99.90
22696;DHT22;11515;54.326;10.184;2022-10-30T13:00:14;25.00;99.90
22696;DHT22;11515;54.326;10.184;2022-10-30T13:08:05;24.80;99.90
22696;DHT22;11515;54.326;10.184;2022-10-30T13:10:34;24.40;99.90
22696;DHT22;11515;54.326;10.184;2022-10-30T13:13:26;24.10;99.90
22696;DHT22;11515;54.326;10.184;2022-10-30T13:15:56;24.00;99.90
22696;DHT22;11515;54.326;10.184;2022-10-30T13:18:24;24.40;99.90
22696;DHT22;11515;54.326;10.184;2022-10-30T13:23:51;23.80;99.90
22696;DHT22;11515;54.326;10.184;2022-10-30T13:26:40;23.50;99.90
22696;DHT22;11515;54.326;10.184;2022-10-30T13:29:37;23.30;99.90
22696;DHT22;11515;54.326;10.184;2022-10-30T13:38:34;22.30;99.90
22696;DHT22;11515;54.326;10.184;2022-10-30T13:41:24;23.30;99.90
22696;DHT22;11515;54.326;10.184;2022-10-30T13:44:53;23.30;99.90
22696;DHT22;11515;54.326;10.184;2022-10-30T13:55:16;24.40;99.90
22696;DHT22;11515;54.326;10.184;2022-10-30T14:01:00;24.30;99.90
22696;DHT22;11515;54.326;10.184;2022-10-30T14:09:34;24.90;99.90
22696;DHT22;11515;54.326;10.184;2022-10-30T14:15:19;24.70;99.90
22696;DHT22;11515;54.326;10.184;2022-10-30T14:20:49;25.20;99.90
22696;DHT22;11515;54.326;10.184;2022-10-30T14:28:33;24.10;99.90
22696;DHT22;11515;54.326;10.184;2022-10-30T14:31:11;23.30;99.90
22696;DHT22;11515;54.326;10.184;2022-10-30T14:33:48;22.90;99.90
22696;DHT22;11515;54.326;10.184;2022-10-30T14:39:27;23.30;99.90
22696;DHT22;11515;54.326;10.184;2022-10-30T14:52:38;22.40;99.90
22696;DHT22;11515;54.326;10.184;2022-10-30T15:00:43;21.40;99.90
22696;DHT22;11515;54.326;10.184;2022-10-30T15:06:00;20.70;99.90
22696;DHT22;11515;54.326;10.184;2022-10-30T15:11:21;19.80;99.90
22696;DHT22;11515;54.326;10.184;2022-10-30T15:13:55;19.40;99.90
22696;DHT22;11515;54.326;10.184;2022-10-30T15:16:23;19.10;99.90
22696;DHT22;11515;54.326;10.184;2022-10-30T15:19:08;18.80;99.90
22696;DHT22;11515;54.326;10.184;2022-10-30T15:21:44;18.60;99.90
22696;DHT22;11515;54.326;10.184;2022-10-30T15:24:22;18.40;99.90
22696;DHT22;11515;54.326;10.184;2022-10-30T15:26:53;18.10;99.90
22696;DHT22;11515;54.326;10.184;2022-10-30T15:29:23;18.00;99.90
22696;DHT22;11515;54.326;10.184;2022-10-30T15:31:57;17.80;99.90
22696;DHT22;11515;54.326;10.184;2022-10-30T15:34:23;17.60;99.90
22696;DHT22;11515;54.326;10.184;2022-10-30T15:36:50;17.50;99.90
22696;DHT22;11515;54.326;10.184;2022-10-30T15:39:17;17.40;99.90
22696;DHT22;11515;54.326;10.184;2022-10-30T15:41:49;17.20;99.90
22696;DHT22;11515;54.326;10.184;2022-10-30T15:44:22;17.10;99.90
22696;DHT22;11515;54.326;10.184;2022-10-30T15:46:51;17.00;99.90
22696;DHT22;11515;54.326;10.184;2022-10-30T15:51:56;16.80;99.90
22696;DHT22;11515;54.326;10.184;2022-10-30T15:54:23;16.60;99.90
22696;DHT22;11515;54.326;10.184;2022-10-30T15:56:54;16.40;99.90
22696;DHT22;11515;54.326;10.184;2022-10-30T15:59:23;16.20;99.90
22696;DHT22;11515;54.326;10.184;2022-10-30T16:01:51;16.10;99.90
22696;DHT22;11515;54.326;10.184;2022-10-30T16:04:22;15.90;99.90
22696;DHT22;11515;54.326;10.184;2022-10-30T16:06:49;15.80;99.90
22696;DHT22;11515;54.326;10.184;2022-10-30T16:09:15;15.60;99.90
22696;DHT22;11515;54.326;10.184;2022-10-30T16:11:41;15.50;99.90
22696;DHT22;11515;54.326;10.184;2022-10-30T16:14:09;15.40;99.90
22696;DHT22;11515;54.326;10.184;2022-10-30T16:16:42;15.30;99.90
22696;DHT22;11515;54.326;10.184;2022-10-30T16:19:27;15.20;99.90
22696;DHT22;11515;54.326;10.184;2022-10-30T16:21:54;15.10;99.90
22696;DHT22;11515;54.326;10.184;2022-10-30T16:24:32;15.10;99.90
22696;DHT22;11515;54.326;10.184;2022-10-30T16:27:06;15.10;99.90
22696;DHT22;11515;54.326;10.184;2022-10-30T16:29:38;15.20;99.90
22696;DHT22;11515;54.326;10.184;2022-10-30T16:32:10;15.20;99.90
22696;DHT22;11515;54.326;10.184;2022-10-30T16:34:36;15.20;99.90
22696;DHT22;11515;54.326;10.184;2022-10-30T16:37:04;15.20;99.90
22696;DHT22;11515;54.326;10.184;2022-10-30T16:39:31;15.20;99.90
22696;DHT22;11515;54.326;10.184;2022-10-30T16:41:58;15.10;99.90
22696;DHT22;11515;54.326;10.184;2022-10-30T16:44:30;15.00;99.90
22696;DHT22;11515;54.326;10.184;2022-10-30T16:49:45;15.00;99.90
22696;DHT22;11515;54.326;10.184;2022-10-30T16:52:13;14.90;99.90
22696;DHT22;11515;54.326;10.184;2022-10-30T16:54:48;14.70;99.90
22696;DHT22;11515;54.326;10.184;2022-10-30T16:57:25;14.70;99.90
22696;DHT22;11515;54.326;10.184;2022-10-30T16:59:52;14.60;99.90
22696;DHT22;11515;54.326;10.184;2022-10-30T17:02:20;14.60;99.90
22696;DHT22;11515;54.326;10.184;2022-10-30T17:04:49;14.40;99.90
22696;DHT22;11515;54.326;10.184;2022-10-30T17:07:23;14.50;99.90
22696;DHT22;11515;54.326;10.184;2022-10-30T17:09:50;14.50;99.90
22696;DHT22;11515;54.326;10.184;2022-10-30T17:12:24;14.40;99.90
22696;DHT22;11515;54.326;10.184;2022-10-30T17:19:53;14.30;99.90
22696;DHT22;11515;54.326;10.184;2022-10-30T17:22:19;14.30;99.90
22696;DHT22;11515;54.326;10.184;2022-10-30T17:24:45;14.20;99.90
22696;DHT22;11515;54.326;10.184;2022-10-30T17:27:40;14.20;99.90
22696;DHT22;11515;54.326;10.184;2022-10-30T17:30:32;14.30;99.90
22696;DHT22;11515;54.326;10.184;2022-10-30T17:33:00;14.30;99.90
22696;DHT22;11515;54.326;10.184;2022-10-30T17:35:26;14.30;99.90
22696;DHT22;11515;54.326;10.184;2022-10-30T17:37:52;14.30;99.90
22696;DHT22;11515;54.326;10.184;2022-10-30T17:40:20;14.20;99.90
22696;DHT22;11515;54.326;10.184;2022-10-30T17:42:49;14.30;99.90
22696;DHT22;11515;54.326;10.184;2022-10-30T17:45:18;14.30;99.90
22696;DHT22;11515;54.326;10.184;2022-10-30T17:47:44;14.30;99.90
22696;DHT22;11515;54.326;10.184;2022-10-30T17:50:10;14.30;99.90
22696;DHT22;11515;54.326;10.184;2022-10-30T17:52:36;14.30;99.90
22696;DHT22;11515;54.326;10.184;2022-10-30T17:55:17;14.30;99.90
22696;DHT22;11515;54.326;10.184;2022-10-30T17:57:44;14.30;99.90
22696;DHT22;11515;54.326;10.184;2022-10-30T18:00:10;14.30;99.90
22696;DHT22;11515;54.326;10.184;2022-10-30T18:02:36;14.30;99.90
22696;DHT22;11515;54.326;10.184;2022-10-30T18:05:09;14.20;99.90
22696;DHT22;11515;54.326;10.184;2022-10-30T18:07:37;14.20;99.90
22696;DHT22;11515;54.326;10.184;2022-10-30T18:10:03;14.20;99.90